Архив погоды в Арке

Метеограмма Арка
Вторник, 17 Июля
Время местн. Темп Ветер Видим Явления Облачность нижн/средн/верх Атм. давл. Влжн Точка росы ВНГО R Сост. почвы Tg s
Напр Скр Прв ур.ст ур.м изм
19:00 +16.9° Ю 4 - 50 км - облачно с прояснениями 739 756 -0.3 79% +13.2° 1.5 км 0 - - -
16:00 +19.3° Ю 3 - более 50 км - переменная облачность 739 756 -1 69% +13.4° 1.5 км - - - -
13:00 +16.6° Ю,Ю-В 2 - 50 км - преимущественно облачно 740 757 -1.1 75% +12.2° 1 км - - - -
10:00 +13.5° Ю,Ю-В 2 - более 50 км - облачно 741 759 -0.4 86% +11.2° 600 м - - - -
07:00 +11.1° Ю,Ю-В 1 - более 50 км - облачно 741 759 -0.4 97% +10.6° 600 м 0 Влажная (без луж) +12° -
04:00 +11.3° Ю 1 - более 50 км - облачно 742 760 -0.3 95% +10.5° 600 м - - - -
01:00 +11.7° Ю,Ю-З 1 - 50 км - облачно 742 760 -0.5 92% +10.4° 600 м - - - -
Понедельник, 16 Июля
Время местн. Темп Ветер Видим Явления Облачность нижн/средн/верх Атм. давл. Влжн Точка росы ВНГО R Сост. почвы Tg s
Напр Скр Прв ур.ст ур.м изм
22:00 +12.8° Ю 2 - 50 км - облачно 743 760 -0.2 88% +10.8° 600 м - - - -
19:00 +14.2° Ю 2 - 50 км - облачно 743 760 -0.5 81% +10.9° 1.5 км 0 - - -
16:00 +14.9° Ю 3 - 50 км - облачно 743 761 -0.7 74% +10.4° 600 м - - - -
13:00 +14.1° Ю 2 - 50 км - облачно 744 762 -0.4 75% +9.7° 600 м - - - -
10:00 +12.3° Ю,Ю-В 2 - 50 км - облачно 744 762 +0.1 84% +9.6° 600 м - - - -
07:00 +10.1° Ю 1 - 50 км - облачно 744 762 -0.2 93% +9.1° 600 м 0 Влажная (без луж) - -
04:00 +9.3° Ю 1 - более 50 км - облачно 744 762 -0.2 93% +8.2° 600 м - - - -
01:00 +9.7° Ю,Ю-В 2 - 50 км - облачно 745 763 +0.5 93% +8.7° 600 м - - - -
Воскресенье, 15 Июля
Время местн. Темп Ветер Видим Явления Облачность нижн/средн/верх Атм. давл. Влжн Точка росы ВНГО R Сост. почвы Tg s
Напр Скр Прв ур.ст ур.м изм
22:00 +11.5° Ю 2 - более 50 км - облачно 744 762 +0.2 95% +10.7° 600 м - - - -
19:00 +12.8° Ю,Ю-В 2 - 50 км - облачно 744 762 +0.1 90% +11.2° 600 м 1 - - -
16:00 +14.5° Ю 3 - более 50 км - облачно 744 761 +0.2 86% +12.2° 600 м - - - -
13:00 +13.2° В,Ю-В 1 - более 50 км - облачно 744 761 +0.4 89% +11.5° 600 м - - - -
10:00 +12.5° Ю 1 - более 50 км ливневый дождь облачно 743 761 +0.5 91% +11° 600 м - - - -
07:00 +11.3° Ю-В 1 - 50 км - облачно 743 761 +0.6 94% +10.3° 600 м 0 Сухая (без трещин) - -
04:00 +11.4° Ю 1 - более 50 км - облачно 742 760 +0.8 92% +10.1° 600 м - - - -
01:00 +11.5° Ю 1 - 50 км - облачно 742 760 +0.8 95% +10.7° 600 м - - - -
Суббота, 14 Июля
Время местн. Темп Ветер Видим Явления Облачность нижн/средн/верх Атм. давл. Влжн Точка росы ВНГО R Сост. почвы Tg s
Напр Скр Прв ур.ст ур.м изм
22:00 +13° Ю,Ю-В 3 - более 50 км - облачно с прояснениями 741 759 +0.9 89% +11.3° 600 м - - - -
19:00 +16.1° Ю 4 - 50 км - преимущественно облачно 740 758 +0.5 81% +12.8° 1.5 км 0 - - -
16:00 +17.4° Ю 3 - более 50 км - облачно с прояснениями 740 757 -0.5 74% +12.8° 1 км - - - -